x

Santa Maria - 21nm Nw Of Point Arguello, Ca (46011) Wave Buoy

4:50pm - Fri 9th Dec 2016 All times are PST. -8 hours from GMT.

  • Sig Wave height 5.2ft
  • Swell Direction
  • Peak Period 8s
  • Average Period 8s
  • Wind
  • Sea Temp 57°f
  • Air Temp 58°f
  • Sea Pressure 1022.9mb
  • Santa Maria - 21nm Nw Of Point Arguello, Ca
  • Santa Maria - 21nm Nw Of Point Arguello, Ca

More Historic Weather Station data

Upgrade to MSW Pro to gain access to the past 30 days of data for over 8000 Wavebouys and Weather Stations around the globe.

Join Pro

Comparision Forecast

View Surf forecast
   
Fri 12/09 4:50pm 5ft 8s 8s  -  2 mph 1022.9mb 57f 58f
3:50pm 5ft 15s 7s 2 4 mph 1023.1mb 56f 57f
2:50pm 5ft 16s 8s 2
mph
1023.3mb 56f 57f
1:50pm 5ft 16s 7s 4
mph
1023.7mb 56f 57f
12:50pm 5ft 16s 7s 2
mph
1024.6mb 57f 58f
11:50am 5ft 8s 7s 2
mph
1025.5mb 57f 57f
10:50am 5.5ft 16s 8s  -  2 mph 1026.3mb 56f 57f
9:50am 5ft 16s 7s 2 4 mph 1026mb 56f 56f
8:50am 6ft 9s 8s 4 7 mph 1025.5mb 56f 56f
7:50am 5.5ft 8s 7s 4 7 mph 1025.1mb 56f 56f
6:50am 5ft 8s 7s 7 9 mph 1025mb 56f 56f
5:50am 5ft 8s 7s 7
mph
1024.3mb 56f 56f
4:50am 5ft 9s 7s 7 9 mph 1024mb 56f 56f
3:50am 5.5ft 8s 7s 4 7 mph 1024.3mb 56f 56f
2:50am 5ft 9s 7s 2 4 mph 1024.7mb 56f 57f
1:50am 5.5ft 8s 7s 7 9 mph 1024.5mb 56f 57f
12:50am 5ft 9s 7s 9 11 mph 1024.4mb 56f 57f
Thu 12/08 11:50pm 5ft 9s 7s 9 11 mph 1024.7mb 56f 57f
10:50pm 5ft 9s 7s 9 11 mph 1024.7mb 56f 57f
9:50pm 4.5ft 9s 7s 9 11 mph 1024.7mb 56f 56f
8:50pm 4.5ft 8s 7s 9 11 mph 1024.7mb 56f 56f
7:50pm 5.5ft 8s 7s 11 13 mph 1024.1mb 56f 56f
6:50pm 5.5ft 8s 7s 9 11 mph 1024.1mb 56f 56f
5:50pm 5ft 8s 7s 11 13 mph 1023.6mb 56f 56f
4:50pm 4.5ft 8s 6s 11 13 mph 1023.6mb 56f 56f
3:50pm 4.5ft 7s 6s 13 16 mph 1023.2mb 56f 56f
2:50pm 4.5ft 6s 6s 13 16 mph 1023.2mb 56f 56f
1:50pm 4ft 16s 5s 13 18 mph 1023mb 56f 56f
12:50pm 4ft 6s 5s 13 16 mph 1023.1mb 56f 56f
11:50am 3.5ft 16s 5s 16 18 mph 1023.7mb 56f 55f
10:50am 3ft 16s 5s 16 18 mph 1024.3mb 56f 55f
9:50am 2.5ft 16s 5s 13 18 mph 1024.3mb 56f 54f
8:50am 3ft 16s 5s 16 18 mph 1023.7mb 56f 54f
7:50am 3ft 16s 5s 16 18 mph 1023mb 56f 53f
6:50am 2.5ft 16s 6s 16 18 mph 1022.5mb 56f 54f
5:50am 3ft 12s 6s 11 13 mph 1022.2mb 56f 54f
4:50am 3.5ft 12s 7s 11 13 mph 1021.7mb 56f 54f
3:50am 3.5ft 12s 7s 13 16 mph 1021.5mb 56f 54f
2:50am 3.5ft 11s 8s 13 16 mph 1021.8mb 56f 54f
1:50am 4ft 16s 9s 11 13 mph 1021.9mb 56f 54f
12:50am 3.5ft 13s 9s 9
mph
1021.7mb 56f 55f
Wed 12/07 11:50pm 4ft 12s 8s 7 9 mph 1021.9mb 56f 55f
9:50pm 5ft 13s 9s 2
mph
1021.8mb 56f 55f
8:50pm 5.5ft 11s 9s 4
mph
1021.9mb 56f 55f
7:50pm 5ft 13s 9s 7 9 mph 1021.5mb 56f 55f
6:50pm 7ft 12s 10s 7 9 mph 1021.4mb 56f 54f
5:50pm 5.5ft 11s 9s 9 11 mph 1020.9mb 56f 54f
4:50pm 5.5ft 13s 8s 9 13 mph 1020.6mb 56f 54f
3:50pm 6.5ft 12s 9s 7 11 mph 1020.3mb 56f 54f
2:50pm 6ft 12s 8s 9 11 mph 1020mb 56f 53f
1:50pm 7ft 14s 8s 13 16 mph 1020.2mb 56f 54f
12:50pm 7ft 13s 8s 16 20 mph 1020.7mb 56f 53f
11:50am 6ft 14s 7s 18 22 mph 1021.1mb 56f 53f
10:50am 6ft 14s 8s 16 18 mph 1021.7mb 56f 52f
8:50am 6.5ft 14s 7s 11 13 mph 1021.1mb 56f 52f
7:50am 7ft 14s 7s 11 13 mph 1020.2mb 56f 52f
6:50am 7ft 15s 7s 13 16 mph 1019.6mb 56f 51f
5:50am 7ft 14s 7s 13 18 mph 1019.4mb 56f 51f
4:50am 7ft 14s 7s 16 20 mph 1019.1mb 56f 52f
3:50am 8ft 13s 7s 18 22 mph 1019.3mb 56f 53f
2:50am 8ft 13s 7s 18 20 mph 1019.5mb 56f 53f
1:50am 8.5ft 14s 7s 13 18 mph 1019.5mb 56f 53f
12:50am 8.5ft 12s 7s 16 18 mph 1019.4mb 56f 53f
Tue 12/06 11:50pm 9ft 13s 7s 13 16 mph 1019.2mb 56f 54f
10:50pm 10ft 13s 7s 22 27 mph 1019.2mb 56f 54f
9:50pm 10ft 15s 7s 25 29 mph 1018.7mb 56f 54f
8:50pm 11.5ft 15s 8s 22 27 mph 1018.4mb 56f 55f
6:50pm 11ft 14s 7s 22 27 mph 1017.7mb 56f 55f
5:50pm 11ft 13s 7s 25 29 mph 1017.4mb 56f 55f
4:50pm 10ft 9s 7s 25 29 mph 1017.1mb 56f 55f
3:50pm 9ft 8s 7s 22 27 mph 1016.8mb 56f 55f
2:50pm 9ft 8s 7s 22 25 mph 1016.5mb 57f 55f
1:50pm 10ft 14s 7s 18 25 mph 1016.3mb 56f 55f
12:50pm 9ft 14s 7s 18 22 mph 1016.6mb 56f 54f
11:50am 9.5ft 14s 7s 20 25 mph 1017.5mb 56f 54f
10:50am 9.5ft 9s 7s 22 25 mph 1018.2mb 56f 55f
9:50am 10ft 15s 7s 18 22 mph 1018.5mb 56f 53f
8:50am 10ft 14s 7s 20 25 mph 1017.7mb 56f 54f
7:50am 10.5ft 14s 8s 16 22 mph 1017.3mb 56f 54f
6:50am 10.5ft 15s 7s 18 25 mph 1016.7mb 56f 55f
5:50am 11ft 15s 8s 18 22 mph 1016.1mb 56f 54f
4:50am 10ft 15s 8s 20 25 mph 1015.9mb 56f 54f
3:50am 10ft 15s 8s 20 22 mph 1015.9mb 56f 54f
2:50am 10ft 14s 8s 20 22 mph 1016.2mb 56f 54f